sensor_id;sensor_type;location;lat;lon;timestamp;pressure;altitude;pressure_sealevel;temperature;humidity
60345;BME280;46188;52.324;8.032;2023-10-13T00:00:28;100059.81;;;16.24;100.00
60345;BME280;46188;52.324;8.032;2023-10-13T00:03:06;100062.41;;;16.27;100.00
60345;BME280;46188;52.324;8.032;2023-10-13T00:05:32;100059.84;;;16.22;100.00
60345;BME280;46188;52.324;8.032;2023-10-13T00:08:02;100056.28;;;16.23;100.00
60345;BME280;46188;52.324;8.032;2023-10-13T00:10:29;100047.38;;;16.24;100.00
60345;BME280;46188;52.324;8.032;2023-10-13T00:12:54;100044.66;;;16.29;100.00
60345;BME280;46188;52.324;8.032;2023-10-13T00:15:30;100043.69;;;16.32;100.00
60345;BME280;46188;52.324;8.032;2023-10-13T00:18:03;100044.56;;;16.34;100.00
60345;BME280;46188;52.324;8.032;2023-10-13T00:20:37;100045.50;;;16.30;100.00
60345;BME280;46188;52.324;8.032;2023-10-13T00:23:03;100046.28;;;16.35;100.00
60345;BME280;46188;52.324;8.032;2023-10-13T00:25:28;100046.28;;;16.35;100.00
60345;BME280;46188;52.324;8.032;2023-10-13T00:27:57;100040.06;;;16.36;100.00
60345;BME280;46188;52.324;8.032;2023-10-13T00:30:23;100042.75;;;16.34;100.00
60345;BME280;46188;52.324;8.032;2023-10-13T00:32:58;100023.38;;;16.29;100.00
60345;BME280;46188;52.324;8.032;2023-10-13T00:35:26;100028.66;;;16.31;100.00
60345;BME280;46188;52.324;8.032;2023-10-13T00:38:01;100031.25;;;16.34;100.00
60345;BME280;46188;52.324;8.032;2023-10-13T00:40:40;100022.34;;;16.35;100.00
60345;BME280;46188;52.324;8.032;2023-10-13T00:43:10;100030.38;;;16.32;100.00
60345;BME280;46188;52.324;8.032;2023-10-13T00:45:52;100026.00;;;16.31;100.00
60345;BME280;46188;52.324;8.032;2023-10-13T00:48:23;100018.00;;;16.31;100.00
60345;BME280;46188;52.324;8.032;2023-10-13T00:51:04;100016.97;;;16.38;100.00
60345;BME280;46188;52.324;8.032;2023-10-13T00:53:34;100015.25;;;16.37;100.00
60345;BME280;46188;52.324;8.032;2023-10-13T00:56:02;100006.38;;;16.36;100.00
60345;BME280;46188;52.324;8.032;2023-10-13T00:59:03;100005.53;;;16.34;100.00
60345;BME280;46188;52.324;8.032;2023-10-13T01:01:29;100003.69;;;16.36;100.00
60345;BME280;46188;52.324;8.032;2023-10-13T01:03:57;100000.13;;;16.39;100.00
60345;BME280;46188;52.324;8.032;2023-10-13T01:06:27;100007.22;;;16.38;100.00
60345;BME280;46188;52.324;8.032;2023-10-13T01:09:01;99995.69;;;16.38;100.00
60345;BME280;46188;52.324;8.032;2023-10-13T01:11:37;99997.47;;;16.39;100.00
60345;BME280;46188;52.324;8.032;2023-10-13T01:14:02;99999.31;;;16.35;100.00
60345;BME280;46188;52.324;8.032;2023-10-13T01:16:29;99996.59;;;16.38;100.00
60345;BME280;46188;52.324;8.032;2023-10-13T01:18:55;100000.91;;;16.44;100.00
60345;BME280;46188;52.324;8.032;2023-10-13T01:21:24;99999.09;;;16.45;100.00
60345;BME280;46188;52.324;8.032;2023-10-13T01:23:52;99992.94;;;16.42;100.00
60345;BME280;46188;52.324;8.032;2023-10-13T01:26:17;99984.13;;;16.40;100.00
60345;BME280;46188;52.324;8.032;2023-10-13T01:28:48;99979.66;;;16.42;100.00
60345;BME280;46188;52.324;8.032;2023-10-13T01:31:14;99978.75;;;16.44;100.00
60345;BME280;46188;52.324;8.032;2023-10-13T01:33:50;99984.03;;;16.45;100.00
60345;BME280;46188;52.324;8.032;2023-10-13T01:36:19;99978.75;;;16.44;100.00
60345;BME280;46188;52.324;8.032;2023-10-13T01:38:44;99970.81;;;16.42;100.00
60345;BME280;46188;52.324;8.032;2023-10-13T01:41:12;99972.59;;;16.40;100.00
60345;BME280;46188;52.324;8.032;2023-10-13T01:43:37;99964.53;;;16.45;100.00
60345;BME280;46188;52.324;8.032;2023-10-13T01:46:03;99968.00;;;16.47;100.00
60345;BME280;46188;52.324;8.032;2023-10-13T01:48:29;99972.47;;;16.46;100.00
60345;BME280;46188;52.324;8.032;2023-10-13T01:50:57;99967.97;;;16.48;100.00
60345;BME280;46188;52.324;8.032;2023-10-13T01:53:25;99959.16;;;16.46;100.00
60345;BME280;46188;52.324;8.032;2023-10-13T01:55:54;99966.34;;;16.42;100.00
60345;BME280;46188;52.324;8.032;2023-10-13T01:58:22;99957.53;;;16.40;100.00
60345;BME280;46188;52.324;8.032;2023-10-13T02:00:48;99948.59;;;16.43;100.00
60345;BME280;46188;52.324;8.032;2023-10-13T02:03:14;99946.69;;;16.48;100.00
60345;BME280;46188;52.324;8.032;2023-10-13T02:05:46;99946.59;;;16.53;100.00
60345;BME280;46188;52.324;8.032;2023-10-13T02:08:19;99942.25;;;16.50;100.00
60345;BME280;46188;52.324;8.032;2023-10-13T02:10:55;99943.09;;;16.51;100.00
60345;BME280;46188;52.324;8.032;2023-10-13T02:13:22;99937.72;;;16.54;100.00
60345;BME280;46188;52.324;8.032;2023-10-13T02:15:49;99927.94;;;16.54;100.00
60345;BME280;46188;52.324;8.032;2023-10-13T02:18:19;99931.53;;;16.53;100.00
60345;BME280;46188;52.324;8.032;2023-10-13T02:20:54;99922.69;;;16.51;100.00
60345;BME280;46188;52.324;8.032;2023-10-13T02:23:21;99918.34;;;16.49;100.00
60345;BME280;46188;52.324;8.032;2023-10-13T02:25:47;99915.69;;;16.47;100.00
60345;BME280;46188;52.324;8.032;2023-10-13T02:28:13;99913.00;;;16.49;100.00
60345;BME280;46188;52.324;8.032;2023-10-13T02:30:47;99912.13;;;16.48;100.00
60345;BME280;46188;52.324;8.032;2023-10-13T02:33:16;99914.75;;;16.50;100.00
60345;BME280;46188;52.324;8.032;2023-10-13T02:35:49;99908.75;;;16.40;100.00
60345;BME280;46188;52.324;8.032;2023-10-13T02:38:24;99909.41;;;16.50;100.00
60345;BME280;46188;52.324;8.032;2023-10-13T02:40:58;99902.22;;;16.55;100.00
60345;BME280;46188;52.324;8.032;2023-10-13T02:43:31;99904.03;;;16.53;100.00
60345;BME280;46188;52.324;8.032;2023-10-13T02:45:58;99901.47;;;16.48;100.00
60345;BME280;46188;52.324;8.032;2023-10-13T02:48:25;99897.00;;;16.50;100.00
60345;BME280;46188;52.324;8.032;2023-10-13T02:50:59;99888.06;;;16.53;100.00
60345;BME280;46188;52.324;8.032;2023-10-13T02:53:28;99889.94;;;16.49;100.00
60345;BME280;46188;52.324;8.032;2023-10-13T02:55:54;99888.03;;;16.54;100.00
60345;BME280;46188;52.324;8.032;2023-10-13T02:58:32;99888.91;;;16.55;100.00
60345;BME280;46188;52.324;8.032;2023-10-13T03:01:06;99883.53;;;16.56;100.00
60345;BME280;46188;52.324;8.032;2023-10-13T03:03:42;99883.50;;;16.58;100.00
60345;BME280;46188;52.324;8.032;2023-10-13T03:06:08;99884.47;;;16.55;100.00
60345;BME280;46188;52.324;8.032;2023-10-13T03:08:37;99872.00;;;16.57;100.00
60345;BME280;46188;52.324;8.032;2023-10-13T03:11:02;99870.22;;;16.58;100.00
60345;BME280;46188;52.324;8.032;2023-10-13T03:13:30;99873.75;;;16.58;100.00
60345;BME280;46188;52.324;8.032;2023-10-13T03:15:58;99871.09;;;16.58;100.00
60345;BME280;46188;52.324;8.032;2023-10-13T03:18:23;99867.47;;;16.61;100.00
60345;BME280;46188;52.324;8.032;2023-10-13T03:20:49;99867.44;;;16.63;100.00
60345;BME280;46188;52.324;8.032;2023-10-13T03:23:22;99871.00;;;16.61;100.00
60345;BME280;46188;52.324;8.032;2023-10-13T03:25:49;99870.22;;;16.58;100.00
60345;BME280;46188;52.324;8.032;2023-10-13T03:28:15;99858.84;;;16.51;100.00
60345;BME280;46188;52.324;8.032;2023-10-13T03:30:42;99856.06;;;16.56;100.00
60345;BME280;46188;52.324;8.032;2023-10-13T03:33:09;99858.69;;;16.57;100.00
60345;BME280;46188;52.324;8.032;2023-10-13T03:35:41;99849.72;;;16.61;100.00
60345;BME280;46188;52.324;8.032;2023-10-13T03:38:07;99844.41;;;16.61;100.00
60345;BME280;46188;52.324;8.032;2023-10-13T03:40:50;99837.28;;;16.64;100.00
60345;BME280;46188;52.324;8.032;2023-10-13T03:43:36;99839.19;;;16.58;100.00
60345;BME280;46188;52.324;8.032;2023-10-13T03:46:10;99847.00;;;16.65;100.00
60345;BME280;46188;52.324;8.032;2023-10-13T03:48:36;99849.72;;;16.61;100.00
60345;BME280;46188;52.324;8.032;2023-10-13T03:51:20;99834.69;;;16.60;100.00
60345;BME280;46188;52.324;8.032;2023-10-13T03:53:46;99837.41;;;16.57;100.00
60345;BME280;46188;52.324;8.032;2023-10-13T03:56:18;99824.88;;;16.63;100.00
60345;BME280;46188;52.324;8.032;2023-10-13T03:58:57;99827.44;;;16.67;100.00
60345;BME280;46188;52.324;8.032;2023-10-13T04:01:28;99831.78;;;16.70;100.00
60345;BME280;46188;52.324;8.032;2023-10-13T04:04:00;99823.06;;;16.63;100.00
60345;BME280;46188;52.324;8.032;2023-10-13T04:06:30;99830.19;;;16.63;100.00
60345;BME280;46188;52.324;8.032;2023-10-13T04:09:19;99814.16;;;16.66;100.00
60345;BME280;46188;52.324;8.032;2023-10-13T04:11:57;99814.13;;;16.67;100.00
60345;BME280;46188;52.324;8.032;2023-10-13T04:14:37;99812.47;;;16.61;100.00
60345;BME280;46188;52.324;8.032;2023-10-13T04:17:21;99814.22;;;16.63;100.00
60345;BME280;46188;52.324;8.032;2023-10-13T04:19:54;99805.38;;;16.62;100.00
60345;BME280;46188;52.324;8.032;2023-10-13T04:22:40;99806.31;;;16.59;100.00
60345;BME280;46188;52.324;8.032;2023-10-13T04:25:25;99804.47;;;16.61;100.00
60345;BME280;46188;52.324;8.032;2023-10-13T04:28:13;99790.34;;;16.59;100.00
60345;BME280;46188;52.324;8.032;2023-10-13T04:30:44;99788.59;;;16.60;100.00
60345;BME280;46188;52.324;8.032;2023-10-13T04:33:25;99784.97;;;16.63;100.00
60345;BME280;46188;52.324;8.032;2023-10-13T04:36:07;99776.97;;;16.63;100.00
60345;BME280;46188;52.324;8.032;2023-10-13T04:38:53;99768.19;;;16.59;100.00
60345;BME280;46188;52.324;8.032;2023-10-13T04:41:35;99763.59;;;16.66;100.00
60345;BME280;46188;52.324;8.032;2023-10-13T04:44:07;99753.78;;;16.68;100.00
60345;BME280;46188;52.324;8.032;2023-10-13T04:46:52;99753.78;;;16.68;100.00
60345;BME280;46188;52.324;8.032;2023-10-13T04:49:24;99748.44;;;16.68;100.00
60345;BME280;46188;52.324;8.032;2023-10-13T04:52:02;99734.50;;;16.58;100.00
60345;BME280;46188;52.324;8.032;2023-10-13T04:54:35;99733.63;;;16.57;100.00
60345;BME280;46188;52.324;8.032;2023-10-13T04:57:14;99729.16;;;16.59;100.00
60345;BME280;46188;52.324;8.032;2023-10-13T05:00:00;99717.53;;;16.64;100.00
60345;BME280;46188;52.324;8.032;2023-10-13T05:02:36;99707.63;;;16.69;100.00
60345;BME280;46188;52.324;8.032;2023-10-13T05:05:09;99709.28;;;16.73;100.00
60345;BME280;46188;52.324;8.032;2023-10-13T05:07:45;99704.94;;;16.70;100.00
60345;BME280;46188;52.324;8.032;2023-10-13T05:10:29;99691.63;;;16.70;100.00
60345;BME280;46188;52.324;8.032;2023-10-13T05:13:13;99693.34;;;16.71;100.00
60345;BME280;46188;52.324;8.032;2023-10-13T05:15:57;99697.81;;;16.71;100.00
60345;BME280;46188;52.324;8.032;2023-10-13T05:18:41;99699.63;;;16.70;100.00
60345;BME280;46188;52.324;8.032;2023-10-13T05:21:24;99703.97;;;16.73;100.00
60345;BME280;46188;52.324;8.032;2023-10-13T05:24:08;99696.00;;;16.71;100.00
60345;BME280;46188;52.324;8.032;2023-10-13T05:26:53;99701.53;;;16.65;100.00
60345;BME280;46188;52.324;8.032;2023-10-13T05:29:43;99690.03;;;16.63;100.00
60345;BME280;46188;52.324;8.032;2023-10-13T05:32:28;99681.97;;;16.66;100.00
60345;BME280;46188;52.324;8.032;2023-10-13T05:35:12;99676.75;;;16.61;100.00
60345;BME280;46188;52.324;8.032;2023-10-13T05:37:56;99681.06;;;16.67;100.00
60345;BME280;46188;52.324;8.032;2023-10-13T05:40:50;99666.97;;;16.64;100.00
60345;BME280;46188;52.324;8.032;2023-10-13T05:43:34;99666.97;;;16.64;100.00
60345;BME280;46188;52.324;8.032;2023-10-13T05:46:18;99642.97;;;16.65;100.00
60345;BME280;46188;52.324;8.032;2023-10-13T05:48:53;99636.69;;;16.68;100.00
60345;BME280;46188;52.324;8.032;2023-10-13T05:51:21;99629.63;;;16.67;100.00
60345;BME280;46188;52.324;8.032;2023-10-13T05:54:22;99623.53;;;16.61;100.00
60345;BME280;46188;52.324;8.032;2023-10-13T05:57:06;99613.03;;;16.57;100.00
60345;BME280;46188;52.324;8.032;2023-10-13T05:59:49;99628.22;;;16.53;100.00
60345;BME280;46188;52.324;8.032;2023-10-13T06:02:33;99617.75;;;16.47;100.00
60345;BME280;46188;52.324;8.032;2023-10-13T06:05:34;99613.31;;;16.46;100.00
60345;BME280;46188;52.324;8.032;2023-10-13T06:08:17;99597.47;;;16.41;100.00
60345;BME280;46188;52.324;8.032;2023-10-13T06:11:02;99597.47;;;16.41;100.00
60345;BME280;46188;52.324;8.032;2023-10-13T06:13:47;99604.59;;;16.41;100.00
60345;BME280;46188;52.324;8.032;2023-10-13T06:16:31;99599.44;;;16.35;100.00
60345;BME280;46188;52.324;8.032;2023-10-13T06:19:15;99604.81;;;16.32;100.00
60345;BME280;46188;52.324;8.032;2023-10-13T06:21:58;99592.47;;;16.31;100.00
60345;BME280;46188;52.324;8.032;2023-10-13T06:24:42;99580.09;;;16.28;100.00
60345;BME280;46188;52.324;8.032;2023-10-13T06:27:26;99587.22;;;16.28;100.00
60345;BME280;46188;52.324;8.032;2023-10-13T06:30:10;99593.44;;;16.27;100.00
60345;BME280;46188;52.324;8.032;2023-10-13T06:32:35;99591.63;;;16.29;100.00
60345;BME280;46188;52.324;8.032;2023-10-13T06:35:05;99580.97;;;16.30;100.00
60345;BME280;46188;52.324;8.032;2023-10-13T06:37:43;99588.78;;;16.35;100.00
60345;BME280;46188;52.324;8.032;2023-10-13T06:40:10;99579.94;;;16.34;100.00
60345;BME280;46188;52.324;8.032;2023-10-13T06:42:54;99575.50;;;16.35;100.00
60345;BME280;46188;52.324;8.032;2023-10-13T06:45:28;99572.84;;;16.35;100.00
60345;BME280;46188;52.324;8.032;2023-10-13T06:47:55;99572.75;;;16.38;100.00
60345;BME280;46188;52.324;8.032;2023-10-13T06:50:23;99564.69;;;16.41;100.00
60345;BME280;46188;52.324;8.032;2023-10-13T06:52:50;99566.31;;;16.47;100.00
60345;BME280;46188;52.324;8.032;2023-10-13T06:55:19;99558.28;;;16.48;100.00
60345;BME280;46188;52.324;8.032;2023-10-13T06:58:00;99564.50;;;16.49;100.00
60345;BME280;46188;52.324;8.032;2023-10-13T07:00:26;99584.72;;;16.54;100.00
60345;BME280;46188;52.324;8.032;2023-10-13T07:02:55;99569.53;;;16.58;100.00
60345;BME280;46188;52.324;8.032;2023-10-13T07:05:40;99580.09;;;16.61;100.00
60345;BME280;46188;52.324;8.032;2023-10-13T07:08:07;99569.41;;;16.63;100.00
60345;BME280;46188;52.324;8.032;2023-10-13T07:10:32;99580.03;;;16.64;100.00
60345;BME280;46188;52.324;8.032;2023-10-13T07:13:10;99582.59;;;16.67;100.00
60345;BME280;46188;52.324;8.032;2023-10-13T07:15:36;99571.88;;;16.70;100.00
60345;BME280;46188;52.324;8.032;2023-10-13T07:18:10;99585.94;;;16.74;100.00
60345;BME280;46188;52.324;8.032;2023-10-13T07:20:38;99584.00;;;16.81;100.00
60345;BME280;46188;52.324;8.032;2023-10-13T07:23:09;99585.75;;;16.82;100.00
60345;BME280;46188;52.324;8.032;2023-10-13T07:25:43;99583.91;;;16.85;100.00
60345;BME280;46188;52.324;8.032;2023-10-13T07:28:09;99601.56;;;16.88;100.00
60345;BME280;46188;52.324;8.032;2023-10-13T07:30:35;99604.16;;;16.89;100.00
60345;BME280;46188;52.324;8.032;2023-10-13T07:33:27;99595.38;;;16.87;100.00
60345;BME280;46188;52.324;8.032;2023-10-13T07:36:05;99587.28;;;16.90;100.00
60345;BME280;46188;52.324;8.032;2023-10-13T07:38:57;99589.06;;;16.91;100.00
60345;BME280;46188;52.324;8.032;2023-10-13T07:41:46;99581.84;;;16.95;100.00
60345;BME280;46188;52.324;8.032;2023-10-13T07:44:16;99576.25;;;17.03;100.00
60345;BME280;46188;52.324;8.032;2023-10-13T07:46:42;99578.72;;;17.10;100.00
60345;BME280;46188;52.324;8.032;2023-10-13T07:49:11;99590.13;;;17.14;100.00
60345;BME280;46188;52.324;8.032;2023-10-13T07:51:37;99574.97;;;17.16;100.00
60345;BME280;46188;52.324;8.032;2023-10-13T07:54:12;99581.09;;;17.20;100.00
60345;BME280;46188;52.324;8.032;2023-10-13T07:56:40;99586.44;;;17.20;100.00
60345;BME280;46188;52.324;8.032;2023-10-13T07:59:05;99583.72;;;17.21;100.00
60345;BME280;46188;52.324;8.032;2023-10-13T08:01:35;99586.47;;;17.18;100.00
60345;BME280;46188;52.324;8.032;2023-10-13T08:04:00;99571.31;;;17.20;100.00
60345;BME280;46188;52.324;8.032;2023-10-13T08:06:39;99571.22;;;17.23;100.00
60345;BME280;46188;52.324;8.032;2023-10-13T08:09:06;99574.72;;;17.25;100.00
60345;BME280;46188;52.324;8.032;2023-10-13T08:11:33;99564.16;;;17.22;100.00
60345;BME280;46188;52.324;8.032;2023-10-13T08:14:05;99565.84;;;17.25;100.00
60345;BME280;46188;52.324;8.032;2023-10-13T08:16:41;99561.31;;;17.28;100.00
60345;BME280;46188;52.324;8.032;2023-10-13T08:19:14;99547.88;;;17.31;100.00
60345;BME280;46188;52.324;8.032;2023-10-13T08:21:44;99541.63;;;17.32;100.00
60345;BME280;46188;52.324;8.032;2023-10-13T08:24:18;99541.47;;;17.37;100.00
60345;BME280;46188;52.324;8.032;2023-10-13T08:27:02;99536.00;;;17.42;100.00
60345;BME280;46188;52.324;8.032;2023-10-13T08:29:44;99531.44;;;17.45;100.00
60345;BME280;46188;52.324;8.032;2023-10-13T08:32:38;99527.84;;;17.48;100.00
60345;BME280;46188;52.324;8.032;2023-10-13T08:35:24;99526.84;;;17.50;100.00
60345;BME280;46188;52.324;8.032;2023-10-13T08:37:55;99527.75;;;17.51;100.00
60345;BME280;46188;52.324;8.032;2023-10-13T08:40:23;99531.22;;;17.53;100.00
60345;BME280;46188;52.324;8.032;2023-10-13T08:43:10;99512.41;;;17.58;100.00
60345;BME280;46188;52.324;8.032;2023-10-13T08:45:38;99498.19;;;17.57;100.00
60345;BME280;46188;52.324;8.032;2023-10-13T08:48:05;99499.03;;;17.59;100.00
60345;BME280;46188;52.324;8.032;2023-10-13T08:50:37;99494.72;;;17.55;100.00
60345;BME280;46188;52.324;8.032;2023-10-13T08:53:15;99489.28;;;17.58;100.00
60345;BME280;46188;52.324;8.032;2023-10-13T08:58:34;99477.63;;;17.61;100.00
60345;BME280;46188;52.324;8.032;2023-10-13T09:01:29;99475.09;;;17.58;100.00
60345;BME280;46188;52.324;8.032;2023-10-13T09:04:17;99472.41;;;17.59;100.00
60345;BME280;46188;52.324;8.032;2023-10-13T09:06:49;99480.38;;;17.59;100.00
60345;BME280;46188;52.324;8.032;2023-10-13T09:12:12;99459.22;;;17.55;100.00
60345;BME280;46188;52.324;8.032;2023-10-13T09:14:39;99465.88;;;17.68;100.00
60345;BME280;46188;52.324;8.032;2023-10-13T09:17:11;99466.63;;;17.71;100.00
60345;BME280;46188;52.324;8.032;2023-10-13T09:19:50;99460.25;;;17.76;100.00
60345;BME280;46188;52.324;8.032;2023-10-13T09:22:30;99447.81;;;17.76;100.00
60345;BME280;46188;52.324;8.032;2023-10-13T09:25:02;99445.84;;;17.81;100.00
60345;BME280;46188;52.324;8.032;2023-10-13T09:27:31;99441.22;;;17.86;100.00
60345;BME280;46188;52.324;8.032;2023-10-13T09:30:04;99434.81;;;17.92;100.00
60345;BME280;46188;52.324;8.032;2023-10-13T09:32:44;99434.50;;;18.01;100.00
60345;BME280;46188;52.324;8.032;2023-10-13T09:35:19;99421.78;;;18.10;100.00
60345;BME280;46188;52.324;8.032;2023-10-13T09:37:49;99425.06;;;18.16;100.00
60345;BME280;46188;52.324;8.032;2023-10-13T09:40:16;99430.13;;;18.24;100.00
60345;BME280;46188;52.324;8.032;2023-10-13T09:43:00;99400.25;;;18.38;100.00
60345;BME280;46188;52.324;8.032;2023-10-13T09:45:32;99406.91;;;18.50;100.00
60345;BME280;46188;52.324;8.032;2023-10-13T09:48:12;99422.59;;;18.59;100.00
60345;BME280;46188;52.324;8.032;2023-10-13T09:50:48;99414.41;;;18.63;100.00
60345;BME280;46188;52.324;8.032;2023-10-13T09:53:15;99402.72;;;18.66;100.00
60345;BME280;46188;52.324;8.032;2023-10-13T09:55:46;99395.41;;;18.71;100.00
60345;BME280;46188;52.324;8.032;2023-10-13T09:58:14;99404.22;;;18.73;100.00
60345;BME280;46188;52.324;8.032;2023-10-13T10:00:56;99399.28;;;18.86;100.00
60345;BME280;46188;52.324;8.032;2023-10-13T10:03:46;99400.47;;;19.01;100.00
60345;BME280;46188;52.324;8.032;2023-10-13T10:06:32;99402.66;;;19.13;100.00
60345;BME280;46188;52.324;8.032;2023-10-13T10:09:05;99397.56;;;19.07;100.00
60345;BME280;46188;52.324;8.032;2023-10-13T10:12:05;99389.53;;;19.07;100.00
60345;BME280;46188;52.324;8.032;2023-10-13T10:14:59;99413.22;;;19.16;100.00
60345;BME280;46188;52.324;8.032;2023-10-13T10:17:29;99410.09;;;19.27;100.00
60345;BME280;46188;52.324;8.032;2023-10-13T10:19:58;99403.47;;;19.36;100.00
60345;BME280;46188;52.324;8.032;2023-10-13T10:22:34;99406.44;;;19.50;100.00
60345;BME280;46188;52.324;8.032;2023-10-13T10:25:01;99388.53;;;19.52;100.00
60345;BME280;46188;52.324;8.032;2023-10-13T10:27:29;99390.06;;;19.58;100.00
60345;BME280;46188;52.324;8.032;2023-10-13T10:29:55;99379.03;;;19.66;100.00
60345;BME280;46188;52.324;8.032;2023-10-13T10:32:21;99379.72;;;19.91;100.00
60345;BME280;46188;52.324;8.032;2023-10-13T10:35:08;99366.00;;;19.99;100.00
60345;BME280;46188;52.324;8.032;2023-10-13T10:37:40;99375.09;;;19.75;100.00
60345;BME280;46188;52.324;8.032;2023-10-13T10:40:15;99372.41;;;19.76;100.00
60345;BME280;46188;52.324;8.032;2023-10-13T10:42:59;99362.34;;;19.81;100.00
60345;BME280;46188;52.324;8.032;2023-10-13T10:45:26;99358.06;;;19.98;100.00
60345;BME280;46188;52.324;8.032;2023-10-13T10:47:58;99363.34;;;19.99;100.00
60345;BME280;46188;52.324;8.032;2023-10-13T10:50:27;99356.69;;;20.08;100.00
60345;BME280;46188;52.324;8.032;2023-10-13T10:53:04;99348.38;;;20.33;100.00
60345;BME280;46188;52.324;8.032;2023-10-13T10:55:35;99329.66;;;20.52;100.00
60345;BME280;46188;52.324;8.032;2023-10-13T10:58:01;99337.09;;;20.64;100.00
60345;BME280;46188;52.324;8.032;2023-10-13T11:00:29;99337.50;;;20.55;100.00
60345;BME280;46188;52.324;8.032;2023-10-13T11:03:07;99340.72;;;20.44;100.00
60345;BME280;46188;52.324;8.032;2023-10-13T11:05:43;99317.41;;;20.46;100.00
60345;BME280;46188;52.324;8.032;2023-10-13T11:08:19;99312.63;;;20.53;100.00
60345;BME280;46188;52.324;8.032;2023-10-13T11:10:50;99324.06;;;20.76;100.00
60345;BME280;46188;52.324;8.032;2023-10-13T11:13:15;99319.25;;;20.82;100.00
60345;BME280;46188;52.324;8.032;2023-10-13T11:15:49;99326.09;;;20.71;100.00
60345;BME280;46188;52.324;8.032;2023-10-13T11:18:16;99316.00;;;20.57;100.00
60345;BME280;46188;52.324;8.032;2023-10-13T11:20:48;99309.72;;;20.58;100.00
60345;BME280;46188;52.324;8.032;2023-10-13T11:23:19;99300.44;;;20.84;100.00
60345;BME280;46188;52.324;8.032;2023-10-13T11:25:56;99278.88;;;20.87;100.00
60345;BME280;46188;52.324;8.032;2023-10-13T11:28:21;99283.72;;;20.79;100.00
60345;BME280;46188;52.324;8.032;2023-10-13T11:30:53;99289.47;;;20.71;100.00
60345;BME280;46188;52.324;8.032;2023-10-13T11:33:22;99275.06;;;20.55;100.00
60345;BME280;46188;52.324;8.032;2023-10-13T11:35:52;99270.81;;;20.51;100.00
60345;BME280;46188;52.324;8.032;2023-10-13T11:41:02;99272.94;;;20.44;100.00
60345;BME280;46188;52.324;8.032;2023-10-13T11:43:35;99272.13;;;20.42;100.00
60345;BME280;46188;52.324;8.032;2023-10-13T11:46:22;99278.56;;;20.38;100.00
60345;BME280;46188;52.324;8.032;2023-10-13T11:49:10;99275.91;;;20.38;100.00
60345;BME280;46188;52.324;8.032;2023-10-13T11:51:45;99253.78;;;20.34;100.00
60345;BME280;46188;52.324;8.032;2023-10-13T11:54:12;99258.50;;;20.29;100.00
60345;BME280;46188;52.324;8.032;2023-10-13T11:56:38;99255.00;;;20.27;100.00
60345;BME280;46188;52.324;8.032;2023-10-13T11:59:04;99237.09;;;20.46;100.00
60345;BME280;46188;52.324;8.032;2023-10-13T12:01:31;99239.78;;;20.66;100.00
60345;BME280;46188;52.324;8.032;2023-10-13T12:04:15;99241.91;;;20.94;100.00
60345;BME280;46188;52.324;8.032;2023-10-13T12:06:57;99232.69;;;20.99;100.00
60345;BME280;46188;52.324;8.032;2023-10-13T12:09:42;99216.84;;;21.12;100.00
60345;BME280;46188;52.324;8.032;2023-10-13T12:12:22;99212.94;;;21.18;100.00
60345;BME280;46188;52.324;8.032;2023-10-13T12:14:48;99212.78;;;21.21;100.00
60345;BME280;46188;52.324;8.032;2023-10-13T12:17:30;99208.41;;;21.20;100.00
60345;BME280;46188;52.324;8.032;2023-10-13T12:20:08;99205.59;;;21.22;100.00
60345;BME280;46188;52.324;8.032;2023-10-13T12:22:43;99195.94;;;21.19;100.00
60345;BME280;46188;52.324;8.032;2023-10-13T12:25:09;99190.56;;;21.19;100.00
60345;BME280;46188;52.324;8.032;2023-10-13T12:27:50;99205.72;;;21.20;100.00
60345;BME280;46188;52.324;8.032;2023-10-13T12:30:21;99185.84;;;21.24;100.00
60345;BME280;46188;52.324;8.032;2023-10-13T12:33:13;99190.19;;;21.27;100.00
60345;BME280;46188;52.324;8.032;2023-10-13T12:35:41;99185.84;;;21.24;100.00
60345;BME280;46188;52.324;8.032;2023-10-13T12:38:23;99168.00;;;21.23;100.00
60345;BME280;46188;52.324;8.032;2023-10-13T12:41:04;99179.25;;;21.14;100.00
60345;BME280;46188;52.324;8.032;2023-10-13T12:43:48;99170.75;;;21.06;100.00
60345;BME280;46188;52.324;8.032;2023-10-13T12:46:32;99170.00;;;21.19;100.00
60345;BME280;46188;52.324;8.032;2023-10-13T12:49:15;99172.44;;;21.24;100.00
60345;BME280;46188;52.324;8.032;2023-10-13T12:51:59;99155.34;;;21.27;100.00
60345;BME280;46188;52.324;8.032;2023-10-13T12:54:24;99173.72;;;21.17;100.00
60345;BME280;46188;52.324;8.032;2023-10-13T12:56:53;99154.34;;;21.12;100.00
60345;BME280;46188;52.324;8.032;2023-10-13T12:59:22;99145.97;;;21.18;100.00
60345;BME280;46188;52.324;8.032;2023-10-13T13:01:52;99166.38;;;21.20;100.00
60345;BME280;46188;52.324;8.032;2023-10-13T13:04:18;99142.94;;;21.24;100.00
60345;BME280;46188;52.324;8.032;2023-10-13T13:06:47;99149.78;;;21.30;100.00
60345;BME280;46188;52.324;8.032;2023-10-13T13:09:13;99139.41;;;21.24;100.00
60345;BME280;46188;52.324;8.032;2023-10-13T13:11:38;99142.25;;;21.20;100.00
60345;BME280;46188;52.324;8.032;2023-10-13T13:14:08;99145.91;;;21.35;100.00
60345;BME280;46188;52.324;8.032;2023-10-13T13:16:35;99150.94;;;21.42;100.00
60345;BME280;46188;52.324;8.032;2023-10-13T13:19:00;99159.78;;;21.44;100.00
60345;BME280;46188;52.324;8.032;2023-10-13T13:21:35;99142.78;;;21.43;100.00
60345;BME280;46188;52.324;8.032;2023-10-13T13:24:01;99135.03;;;21.38;100.00
60345;BME280;46188;52.324;8.032;2023-10-13T13:26:28;99132.97;;;21.44;100.00
60345;BME280;46188;52.324;8.032;2023-10-13T13:28:56;99127.28;;;21.50;100.00
60345;BME280;46188;52.324;8.032;2023-10-13T13:31:22;99129.00;;;21.51;100.00
60345;BME280;46188;52.324;8.032;2023-10-13T13:33:55;99121.06;;;21.65;100.00